Time;durP1;ratioP1;P1;durP2;ratioP2;P2;SDS_P1;SDS_P2;PMS_P1;PMS_P2;Temp;Humidity;BMP_temperature;BMP_pressure;BME280_temperature;BME280_humidity;BME280_pressure;Samples;Min_cycle;Max_cycle;Signal;HPM_P1;HPM_P2
2022/03/03 00:02:05;;;;;;;15.67;12.77;;;;;;;4.49;52.93;94357.47;5106515;28;20197;-73
2022/03/03 00:04:30;;;;;;;13.07;10.40;;;;;;;4.53;52.99;94363.16;5106817;28;20204;-73
2022/03/03 00:06:56;;;;;;;18.83;14.00;;;;;;;4.29;53.35;94362.22;5106028;28;20176;-74
2022/03/03 00:09:21;;;;;;;13.67;12.27;;;;;;;4.30;53.17;94357.81;5088155;28;20207;-73
2022/03/03 00:11:47;;;;;;;15.90;11.70;;;;;;;4.23;54.08;94355.09;5106586;28;20181;-74
2022/03/03 00:14:12;;;;;;;10.80;9.70;;;;;;;3.98;54.20;94354.25;5107197;28;20501;-74
2022/03/03 00:16:38;;;;;;;14.60;12.17;;;;;;;4.72;52.28;94351.63;5106453;28;20181;-73
2022/03/03 00:19:04;;;;;;;16.87;12.70;;;;;;;4.53;52.46;94346.78;5106635;28;20950;-74
2022/03/03 00:21:30;;;;;;;9.90;8.50;;;;;;;3.87;54.46;94352.81;5121547;28;20213;-74
2022/03/03 00:23:55;;;;;;;13.93;11.13;;;;;;;4.16;53.87;94345.53;5084674;28;20433;-73
2022/03/03 00:26:21;;;;;;;10.50;6.77;;;;;;;4.06;54.22;94343.94;5105958;28;20236;-73
2022/03/03 00:28:46;;;;;;;14.77;12.23;;;;;;;3.88;55.35;94343.25;5105197;28;20215;-73
2022/03/03 00:31:12;;;;;;;21.00;13.53;;;;;;;4.43;54.21;94342.59;5106239;28;20192;-74
2022/03/03 00:33:38;;;;;;;16.53;12.50;;;;;;;4.22;53.99;94334.53;5092369;28;20169;-73
2022/03/03 00:36:03;;;;;;;12.47;10.10;;;;;;;4.44;53.27;94346.81;5105835;28;20189;-74
2022/03/03 00:38:29;;;;;;;13.70;11.40;;;;;;;4.53;53.36;94347.59;5106265;28;20184;-74
2022/03/03 00:40:54;;;;;;;14.23;12.10;;;;;;;4.37;53.18;94340.66;5091919;28;20314;-74
2022/03/03 00:43:20;;;;;;;15.40;10.90;;;;;;;4.41;53.35;94338.56;5105669;28;20199;-73
2022/03/03 00:45:45;;;;;;;10.73;8.23;;;;;;;4.32;53.40;94340.34;5106194;28;20192;-74
2022/03/03 00:49:31;;;;;;;13.73;11.33;;;;;;;4.34;53.92;94337.59;5103423;28;20180;-72
2022/03/03 00:52:53;;;;;;;15.27;13.07;;;;;;;4.60;53.48;94342.59;5094985;28;20683;-73
2022/03/03 00:54:53;;;;;;;15.17;11.73;;;;;;;4.20;54.42;94336.47;5087247;28;20756;-74
2022/03/03 00:57:19;;;;;;;16.37;12.80;;;;;;;4.41;53.98;94344.53;5104029;28;20460;-74
2022/03/03 00:59:44;;;;;;;15.23;12.67;;;;;;;4.56;53.25;94342.09;5085589;28;20611;-74
2022/03/03 01:02:10;;;;;;;13.80;12.23;;;;;;;4.19;53.55;94334.84;5103765;28;20208;-74
2022/03/03 01:04:35;;;;;;;6.77;6.17;;;;;;;4.36;53.54;94341.63;5103575;28;20188;-74
2022/03/03 01:07:01;;;;;;;11.80;10.57;;;;;;;4.45;53.20;94340.66;5120811;28;20199;-74
2022/03/03 01:09:26;;;;;;;17.53;10.20;;;;;;;4.29;54.25;94344.06;5104494;28;20263;-74
2022/03/03 01:11:52;;;;;;;12.20;10.90;;;;;;;4.37;54.02;94332.09;5086842;28;20178;-73
2022/03/03 01:14:21;;;;;;;18.03;12.90;;;;;;;4.58;53.39;94336.75;5103877;28;20211;-74
2022/03/03 01:16:48;;;;;;;16.73;12.87;;;;;;;4.62;53.22;94332.84;5105394;28;20184;-74
2022/03/03 01:19:13;;;;;;;15.30;11.13;;;;;;;3.94;54.83;94337.44;5104474;28;20558;-73
2022/03/03 01:21:39;;;;;;;15.33;12.60;;;;;;;4.80;53.06;94330.88;5104547;28;20942;-74
2022/03/03 01:24:05;;;;;;;18.17;13.80;;;;;;;4.79;52.96;94333.63;5104918;28;20192;-74
2022/03/03 01:26:30;;;;;;;13.87;12.20;;;;;;;4.31;54.16;94328.38;5104349;28;20242;-74
2022/03/03 01:28:56;;;;;;;16.43;12.80;;;;;;;4.01;54.96;94322.88;5104480;28;20441;-74
2022/03/03 01:31:21;;;;;;;15.07;12.10;;;;;;;4.23;54.38;94325.78;5081741;28;20174;-73
2022/03/03 01:33:47;;;;;;;16.83;12.77;;;;;;;4.48;53.58;94324.78;5103935;28;20214;-74
2022/03/03 01:36:12;;;;;;;15.10;13.20;;;;;;;4.60;53.76;94321.84;5104737;28;20564;-74
2022/03/03 01:38:37;;;;;;;20.77;13.53;;;;;;;4.62;53.32;94319.91;5104532;28;20181;-74
2022/03/03 01:41:03;;;;;;;17.57;14.40;;;;;;;4.32;53.94;94313.63;5104037;28;20188;-73
2022/03/03 01:43:28;;;;;;;14.83;13.17;;;;;;;4.42;53.92;94315.09;5103838;28;20216;-74
2022/03/03 01:45:54;;;;;;;18.40;14.10;;;;;;;4.26;54.63;94302.94;5104416;28;20177;-73
2022/03/03 01:48:19;;;;;;;15.50;13.87;;;;;;;4.41;54.60;94307.47;5104417;28;20189;-74
2022/03/03 01:50:45;;;;;;;13.33;9.73;;;;;;;4.27;54.65;94301.19;5104055;28;20176;-73
2022/03/03 01:53:11;;;;;;;16.27;13.13;;;;;;;4.67;53.81;94307.25;5103991;28;20185;-73
2022/03/03 01:55:36;;;;;;;16.70;13.60;;;;;;;4.32;54.61;94303.28;5104313;28;20480;-74
2022/03/03 01:58:04;;;;;;;17.30;13.50;;;;;;;4.61;53.37;94300.13;5103179;28;20180;-73
2022/03/03 02:00:30;;;;;;;17.57;14.10;;;;;;;4.44;54.29;94297.59;5085881;28;20204;-73
2022/03/03 02:02:55;;;;;;;8.30;6.70;;;;;;;4.09;55.00;94294.38;5085772;28;20443;-74
2022/03/03 02:05:21;;;;;;;11.57;10.37;;;;;;;4.11;55.58;94292.44;5103783;28;20200;-74
2022/03/03 02:07:46;;;;;;;15.80;13.00;;;;;;;4.34;55.11;94290.97;5104090;28;20553;-73
2022/03/03 02:10:12;;;;;;;12.87;10.47;;;;;;;4.65;54.04;94294.47;5104118;28;20185;-74
2022/03/03 02:12:38;;;;;;;16.37;13.10;;;;;;;4.54;54.57;94291.44;5100208;28;20222;-74
2022/03/03 02:15:05;;;;;;;17.10;14.70;;;;;;;4.36;55.18;94291.63;5103939;28;20185;-74
2022/03/03 02:17:31;;;;;;;15.97;13.50;;;;;;;4.60;54.98;94294.16;5104475;28;20184;-74
2022/03/03 02:19:57;;;;;;;18.73;13.87;;;;;;;4.64;54.15;94297.22;5104055;28;20427;-73
2022/03/03 02:22:22;;;;;;;23.40;16.27;;;;;;;4.36;55.32;94289.81;5119594;28;20227;-73
2022/03/03 02:24:48;;;;;;;19.33;14.33;;;;;;;4.45;54.74;94294.03;5101131;28;20438;-74
2022/03/03 02:27:13;;;;;;;20.53;16.20;;;;;;;4.60;54.23;94293.34;5085561;28;20221;-73
2022/03/03 02:29:39;;;;;;;22.23;15.43;;;;;;;4.82;53.85;94295.22;5104526;28;20280;-74
2022/03/03 02:32:07;;;;;;;19.23;16.00;;;;;;;5.06;52.99;94298.69;5086483;28;20234;-74
2022/03/03 02:34:33;;;;;;;19.17;15.27;;;;;;;4.69;54.15;94293.16;5099185;28;20185;-73
2022/03/03 02:36:59;;;;;;;15.87;12.67;;;;;;;5.03;53.24;94297.25;5104715;28;20422;-73
2022/03/03 02:39:25;;;;;;;18.93;16.83;;;;;;;4.79;54.17;94300.72;5105181;28;20434;-74
2022/03/03 02:41:50;;;;;;;13.93;8.70;;;;;;;4.01;56.27;94297.00;5086701;28;20243;-73
2022/03/03 02:44:16;;;;;;;19.87;16.10;;;;;;;4.65;55.12;94299.66;5085580;28;20200;-74
2022/03/03 02:46:42;;;;;;;18.13;16.00;;;;;;;4.92;54.06;94304.59;5086656;28;20192;-74
2022/03/03 02:49:09;;;;;;;17.23;14.70;;;;;;;4.67;54.54;94299.50;5104805;28;20177;-74
2022/03/03 02:51:35;;;;;;;20.70;15.87;;;;;;;4.48;54.87;94298.88;5086001;28;20480;-74
2022/03/03 02:54:01;;;;;;;20.57;15.60;;;;;;;4.68;54.75;94301.09;5106987;28;20441;-74
2022/03/03 02:56:27;;;;;;;17.57;15.10;;;;;;;4.20;56.63;94289.88;5108373;28;20406;-73
2022/03/03 02:58:52;;;;;;;13.17;10.70;;;;;;;4.24;56.15;94294.53;5108729;28;20189;-74
2022/03/03 03:01:18;;;;;;;12.70;11.40;;;;;;;3.62;58.03;94289.06;5108371;28;20227;-74
2022/03/03 03:03:43;;;;;;;17.60;13.57;;;;;;;3.53;58.20;94288.25;5103609;28;20189;-74
2022/03/03 03:06:13;;;;;;;19.43;15.13;;;;;;;4.02;57.30;94292.63;5090651;28;20181;-73
2022/03/03 03:08:39;;;;;;;21.93;14.70;;;;;;;4.13;56.88;94283.72;5108693;28;20200;-73
2022/03/03 03:11:04;;;;;;;19.00;15.23;;;;;;;4.33;56.69;94294.56;5108395;28;20410;-73
2022/03/03 03:13:30;;;;;;;17.07;14.33;;;;;;;4.32;55.93;94288.53;5107733;28;20200;-74
2022/03/03 03:15:55;;;;;;;16.63;14.50;;;;;;;3.68;58.94;94288.41;5107851;28;20195;-73
2022/03/03 03:18:21;;;;;;;18.77;14.73;;;;;;;4.55;55.88;94298.22;5106951;28;20192;-74
2022/03/03 03:20:50;;;;;;;19.47;15.03;;;;;;;4.57;55.82;94293.66;5107776;28;20184;-73
2022/03/03 03:23:18;;;;;;;18.00;15.10;;;;;;;4.14;57.22;94295.72;5108079;28;20473;-73
2022/03/03 03:25:44;;;;;;;19.43;14.50;;;;;;;3.66;58.35;94293.75;5089857;28;20461;-74
2022/03/03 03:28:11;;;;;;;19.23;15.10;;;;;;;3.87;57.69;94295.03;5106957;28;20439;-73
2022/03/03 03:30:36;;;;;;;19.13;15.43;;;;;;;4.27;56.79;94289.06;5107110;28;20219;-73
2022/03/03 03:33:02;;;;;;;19.20;15.07;;;;;;;4.07;57.24;94293.75;5097198;28;20442;-73
2022/03/03 03:35:28;;;;;;;21.93;13.60;;;;;;;3.98;57.87;94292.13;5104781;28;20494;-74
2022/03/03 03:37:54;;;;;;;19.17;14.83;;;;;;;4.29;56.76;94296.66;5104257;28;20260;-73
2022/03/03 03:40:20;;;;;;;21.47;15.63;;;;;;;4.08;57.64;94292.78;5108123;28;20177;-74
2022/03/03 03:42:46;;;;;;;17.00;12.00;;;;;;;3.75;57.76;94296.34;5107709;28;20478;-74
2022/03/03 03:45:13;;;;;;;13.43;11.97;;;;;;;3.62;58.30;94282.09;5107619;28;20429;-73
2022/03/03 03:47:39;;;;;;;19.37;15.40;;;;;;;4.15;57.19;94292.13;5107812;28;20463;-74
2022/03/03 03:50:10;;;;;;;26.07;16.03;;;;;;;4.24;56.84;94283.38;5095750;28;20443;-74
2022/03/03 03:52:37;;;;;;;15.57;13.93;;;;;;;4.23;56.89;94284.34;5107773;28;20411;-73
2022/03/03 03:55:05;;;;;;;19.00;14.60;;;;;;;4.35;56.37;94283.03;5107910;28;20423;-73
2022/03/03 03:57:31;;;;;;;18.27;13.27;;;;;;;4.31;56.66;94286.94;5107256;28;20943;-74
2022/03/03 03:59:57;;;;;;;21.13;15.00;;;;;;;4.09;56.93;94298.78;5088712;28;20435;-73
2022/03/03 04:02:22;;;;;;;18.30;15.87;;;;;;;4.20;56.24;94295.03;5097651;28;20217;-73
2022/03/03 04:04:48;;;;;;;19.23;15.27;;;;;;;4.23;56.28;94292.13;5103021;28;20427;-73
2022/03/03 04:07:14;;;;;;;18.47;15.60;;;;;;;4.48;56.25;94288.53;5107097;28;20184;-73
2022/03/03 04:09:39;;;;;;;25.67;16.97;;;;;;;4.40;56.24;94290.31;5104086;28;20192;-74
2022/03/03 04:12:06;;;;;;;17.87;15.13;;;;;;;4.11;56.97;94287.25;5107108;28;20176;-74
2022/03/03 04:14:31;;;;;;;20.70;15.30;;;;;;;3.88;57.71;94279.34;5106840;28;20181;-73
2022/03/03 04:16:57;;;;;;;19.37;14.23;;;;;;;4.06;57.45;94274.03;5107163;28;20472;-74
2022/03/03 04:19:22;;;;;;;19.43;14.37;;;;;;;4.03;57.25;94268.38;5107033;28;20200;-74
2022/03/03 04:21:48;;;;;;;17.30;14.33;;;;;;;4.05;57.46;94267.22;5106787;28;20201;-74
2022/03/03 04:24:13;;;;;;;16.87;14.00;;;;;;;4.33;56.06;94277.22;5106932;28;20189;-73
2022/03/03 04:26:39;;;;;;;18.53;15.53;;;;;;;4.35;56.23;94283.03;5106228;28;20217;-74
2022/03/03 04:29:04;;;;;;;19.80;15.93;;;;;;;4.01;57.17;94281.47;5096595;28;20599;-73
2022/03/03 04:31:30;;;;;;;22.13;16.60;;;;;;;4.09;57.17;94284.03;5106327;28;20173;-73
2022/03/03 04:33:56;;;;;;;21.20;13.47;;;;;;;3.81;57.84;94282.75;5084580;28;20190;-74
2022/03/03 04:36:22;;;;;;;22.73;16.17;;;;;;;4.20;56.42;94282.91;5098570;28;20643;-74
2022/03/03 04:38:50;;;;;;;20.33;15.00;;;;;;;3.94;57.26;94270.13;5099797;28;20496;-73
2022/03/03 04:41:16;;;;;;;15.27;10.13;;;;;;;4.17;55.86;94280.63;5099203;28;20507;-74
2022/03/03 04:43:42;;;;;;;17.87;14.40;;;;;;;4.15;56.70;94276.59;5099635;28;20427;-74
2022/03/03 04:46:08;;;;;;;20.27;16.80;;;;;;;4.31;56.75;94274.00;5106605;28;20442;-74
2022/03/03 04:48:34;;;;;;;17.97;12.80;;;;;;;3.77;57.53;94277.09;5105794;28;20189;-73
2022/03/03 04:51:00;;;;;;;18.13;13.33;;;;;;;4.22;56.61;94269.78;5101446;28;20427;-74
2022/03/03 04:53:26;;;;;;;18.63;14.10;;;;;;;4.22;56.52;94272.38;5097296;28;20245;-74
2022/03/03 04:55:51;;;;;;;18.97;16.50;;;;;;;4.23;56.45;94271.41;5106119;28;20177;-74
2022/03/03 04:58:17;;;;;;;12.30;11.03;;;;;;;3.72;56.82;94267.25;5106098;28;20499;-73
2022/03/03 05:00:43;;;;;;;20.73;15.00;;;;;;;4.11;56.82;94271.72;5105853;28;20185;-74
2022/03/03 05:03:08;;;;;;;16.07;13.43;;;;;;;3.97;56.89;94269.81;5105989;28;20479;-74
2022/03/03 05:05:34;;;;;;;14.43;10.90;;;;;;;3.98;56.79;94271.41;5105667;28;20647;-73
2022/03/03 05:07:59;;;;;;;15.83;12.53;;;;;;;3.67;57.44;94268.69;5105934;28;20207;-74
2022/03/03 05:10:25;;;;;;;18.03;14.57;;;;;;;3.85;57.81;94265.94;5105643;28;20282;-73
2022/03/03 05:12:50;;;;;;;16.20;13.67;;;;;;;3.77;58.05;94271.13;5105688;28;20238;-74
2022/03/03 05:15:16;;;;;;;21.20;16.27;;;;;;;3.88;57.91;94271.59;5122766;28;20180;-74
2022/03/03 05:17:41;;;;;;;21.17;15.50;;;;;;;4.15;56.86;94274.00;5092526;28;20174;-74
2022/03/03 05:20:07;;;;;;;22.50;16.30;;;;;;;4.02;57.68;94277.91;5105858;28;20191;-74
2022/03/03 05:22:33;;;;;;;20.27;13.80;;;;;;;4.14;56.65;94270.63;5106082;28;20195;-74
2022/03/03 05:24:58;;;;;;;17.47;15.47;;;;;;;3.92;57.49;94269.50;5105233;28;20435;-74
2022/03/03 05:27:24;;;;;;;13.77;10.90;;;;;;;3.64;58.31;94269.84;5105757;28;20212;-74
2022/03/03 05:29:50;;;;;;;21.83;16.90;;;;;;;4.03;57.55;94274.34;5106263;28;20383;-74
2022/03/03 05:32:15;;;;;;;15.97;12.00;;;;;;;3.82;57.00;94277.44;5105418;28;20251;-74
2022/03/03 05:34:41;;;;;;;23.13;14.50;;;;;;;4.16;56.50;94279.03;5104649;28;20464;-74
2022/03/03 05:37:07;;;;;;;18.37;15.03;;;;;;;4.33;55.75;94281.59;5105716;28;20200;-73
2022/03/03 05:39:32;;;;;;;14.70;11.10;;;;;;;3.72;57.44;94287.13;5105622;28;20599;-74
2022/03/03 05:41:58;;;;;;;10.33;8.37;;;;;;;4.25;55.56;94280.63;5105251;28;20204;-73
2022/03/03 05:44:24;;;;;;;15.10;12.70;;;;;;;3.99;55.83;94282.59;5087229;28;20517;-73
2022/03/03 05:46:50;;;;;;;12.37;9.87;;;;;;;4.00;56.03;94279.84;5105537;28;20242;-74
2022/03/03 05:49:19;;;;;;;19.43;14.17;;;;;;;4.05;56.00;94267.22;5087152;28;20427;-74
2022/03/03 05:51:44;;;;;;;10.60;8.67;;;;;;;3.64;56.53;94272.41;5105026;28;20264;-73
2022/03/03 05:54:10;;;;;;;15.00;13.00;;;;;;;3.80;57.08;94283.75;5084886;28;20438;-73
2022/03/03 05:56:39;;;;;;;20.37;14.93;;;;;;;4.36;55.26;94282.06;5105125;28;20414;-74
2022/03/03 05:59:07;;;;;;;19.10;15.23;;;;;;;4.61;54.27;94292.34;5105151;28;20188;-73
2022/03/03 06:01:36;;;;;;;16.90;12.33;;;;;;;4.03;55.93;94294.25;5104829;28;20461;-73
2022/03/03 06:04:03;;;;;;;25.50;14.70;;;;;;;4.31;54.94;94289.53;5104314;28;20938;-74
2022/03/03 06:06:31;;;;;;;15.93;12.80;;;;;;;4.40;55.27;94293.72;5104797;28;20438;-74
2022/03/03 06:09:00;;;;;;;20.23;12.27;;;;;;;4.64;54.43;94289.44;5120528;28;20451;-74
2022/03/03 06:11:28;;;;;;;22.03;14.30;;;;;;;4.57;54.61;94291.91;5105100;28;20490;-73
2022/03/03 06:14:04;;;;;;;13.47;8.70;;;;;;;4.20;55.14;94285.50;5104635;28;20446;-74
2022/03/03 06:16:30;;;;;;;17.93;13.97;;;;;;;4.56;54.56;94289.47;5096101;28;20434;-74
2022/03/03 06:18:58;;;;;;;17.43;14.00;;;;;;;4.62;53.91;94287.00;5097459;28;20426;-74
2022/03/03 06:21:24;;;;;;;17.93;15.93;;;;;;;4.78;53.88;94280.16;5086036;28;20523;-73
2022/03/03 06:23:49;;;;;;;28.50;16.73;;;;;;;5.03;52.59;94286.06;5104437;28;20465;-73
2022/03/03 06:26:17;;;;;;;28.03;16.37;;;;;;;4.97;53.38;94286.72;5104283;28;20255;-74
2022/03/03 06:28:42;;;;;;;22.63;15.27;;;;;;;4.66;53.26;94285.69;5108166;28;20208;-73
2022/03/03 06:31:08;;;;;;;22.60;16.83;;;;;;;4.76;53.29;94285.53;5107955;28;20604;-73
2022/03/03 06:33:35;;;;;;;18.70;15.40;;;;;;;5.07;51.97;94272.59;5108135;28;20258;-74
2022/03/03 06:36:01;;;;;;;15.93;12.57;;;;;;;4.76;53.09;94270.00;5107579;28;20514;-73
2022/03/03 06:38:27;;;;;;;20.47;15.50;;;;;;;4.60;52.74;94273.41;5073849;28;20479;-74
2022/03/03 06:40:55;;;;;;;18.43;13.07;;;;;;;5.09;52.04;94285.38;5090101;28;20403;-73
2022/03/03 06:43:21;;;;;;;18.30;14.77;;;;;;;5.35;50.82;94279.91;5107743;28;20469;-73
2022/03/03 06:45:46;;;;;;;17.80;14.27;;;;;;;5.01;51.82;94285.44;5089718;28;20929;-74
2022/03/03 06:48:13;;;;;;;24.87;14.60;;;;;;;4.96;51.78;94292.91;5107312;28;20431;-73
2022/03/03 06:50:40;;;;;;;18.90;12.53;;;;;;;4.42;51.97;94263.28;5106073;28;20184;-74
2022/03/03 06:53:10;;;;;;;12.50;8.60;;;;;;;4.37;53.00;94294.03;5108164;28;20933;-73
2022/03/03 06:55:37;;;;;;;19.73;14.47;;;;;;;5.13;51.72;94284.06;5107537;28;20459;-74
2022/03/03 06:58:03;;;;;;;19.57;15.57;;;;;;;5.50;50.08;94282.56;5108220;28;20419;-74
2022/03/03 07:00:33;;;;;;;17.93;13.67;;;;;;;4.78;51.83;94291.34;5108140;28;20437;-74
2022/03/03 07:03:04;;;;;;;28.40;17.23;;;;;;;5.07;51.33;94298.53;5108092;28;20462;-73
2022/03/03 07:05:30;;;;;;;16.37;13.13;;;;;;;5.27;50.61;94298.94;5108139;28;20414;-74
2022/03/03 07:07:57;;;;;;;18.73;14.07;;;;;;;5.48;49.89;94306.09;5100954;28;20404;-73
2022/03/03 07:10:24;;;;;;;23.83;16.57;;;;;;;5.43;50.02;94298.03;5082945;28;20470;-74
2022/03/03 07:12:55;;;;;;;19.10;14.97;;;;;;;5.40;49.58;94293.16;5107413;28;20443;-74
2022/03/03 07:15:23;;;;;;;20.93;16.27;;;;;;;5.01;50.93;94298.41;5107504;28;20422;-73
2022/03/03 07:17:53;;;;;;;22.43;14.73;;;;;;;5.13;50.20;94296.25;5107554;28;20487;-74
2022/03/03 07:20:41;;;;;;;24.33;16.20;;;;;;;5.36;49.73;94286.69;5106341;28;20438;-74
2022/03/03 07:23:35;;;;;;;17.83;13.33;;;;;;;5.50;49.35;94289.53;5107481;28;20514;-74
2022/03/03 07:26:01;;;;;;;25.70;14.00;;;;;;;5.38;49.40;94286.53;5107091;28;20455;-74
2022/03/03 07:28:29;;;;;;;21.53;14.90;;;;;;;5.44;49.44;94285.84;5107048;28;20451;-74
2022/03/03 07:30:58;;;;;;;21.03;14.43;;;;;;;5.29;50.02;94280.56;5107299;28;20419;-73
2022/03/03 07:33:27;;;;;;;19.90;14.70;;;;;;;6.10;48.31;94285.41;5107295;28;20454;-74
2022/03/03 07:35:56;;;;;;;17.47;13.67;;;;;;;5.65;47.74;94280.03;5123108;28;20483;-73
2022/03/03 07:38:26;;;;;;;17.60;13.30;;;;;;;5.58;48.84;94279.13;5106873;28;20439;-73
2022/03/03 07:40:52;;;;;;;18.50;12.53;;;;;;;4.81;50.20;94272.88;5106605;28;20437;-74
2022/03/03 07:43:18;;;;;;;16.93;12.70;;;;;;;5.58;49.13;94273.94;5107763;28;20494;-73
2022/03/03 07:45:45;;;;;;;14.33;12.80;;;;;;;5.16;49.57;94268.19;5107607;28;20443;-73
2022/03/03 07:48:12;;;;;;;15.03;11.47;;;;;;;5.23;49.34;94265.69;5107533;28;20423;-73
2022/03/03 07:50:41;;;;;;;21.63;11.80;;;;;;;5.00;49.42;94281.22;5105084;28;20442;-74
2022/03/03 07:53:11;;;;;;;17.67;13.67;;;;;;;5.62;48.20;94277.81;5108379;28;20478;-73
2022/03/03 07:55:46;;;;;;;15.27;10.90;;;;;;;5.11;49.17;94274.84;5107164;28;20956;-73
2022/03/03 07:58:14;;;;;;;15.20;11.50;;;;;;;5.45;49.20;94277.09;5106891;28;20465;-74
2022/03/03 08:00:47;;;;;;;13.23;11.00;;;;;;;5.09;49.44;94286.19;5122495;28;20422;-74
2022/03/03 08:03:16;;;;;;;19.73;11.13;;;;;;;5.16;49.43;94281.16;5106646;28;20463;-73
2022/03/03 08:05:45;;;;;;;15.73;10.90;;;;;;;5.05;49.64;94279.72;5106933;28;20431;-74
2022/03/03 08:08:16;;;;;;;17.73;10.53;;;;;;;5.52;49.09;94278.03;5103983;28;20440;-74
2022/03/03 08:10:43;;;;;;;14.90;11.40;;;;;;;5.88;48.17;94293.03;5105899;28;20418;-73
2022/03/03 08:13:15;;;;;;;17.30;12.90;;;;;;;6.31;47.71;94288.13;5106549;28;21159;-74
2022/03/03 08:15:42;;;;;;;18.97;12.87;;;;;;;6.28;48.18;94282.47;5106554;28;20435;-73
2022/03/03 08:18:08;;;;;;;16.50;12.50;;;;;;;5.99;48.68;94290.03;5106095;28;20415;-74
2022/03/03 08:20:35;;;;;;;14.43;10.87;;;;;;;6.14;47.74;94284.88;5106124;28;20415;-74
2022/03/03 08:23:02;;;;;;;12.23;10.50;;;;;;;6.11;48.23;94284.41;5087899;28;20451;-74
2022/03/03 08:25:29;;;;;;;18.00;13.30;;;;;;;6.60;46.97;94289.16;5087886;28;20478;-74
2022/03/03 08:27:55;;;;;;;17.30;12.10;;;;;;;6.41;48.13;94287.88;5088250;28;20422;-74
2022/03/03 08:30:21;;;;;;;17.10;13.50;;;;;;;6.77;46.44;94288.00;5087649;28;20415;-73
2022/03/03 08:33:07;;;;;;;18.80;12.70;;;;;;;5.97;48.15;94284.19;5106202;28;20169;-73
2022/03/03 08:35:39;;;;;;;15.67;12.77;;;;;;;5.30;49.22;94284.81;5106463;28;20415;-74
2022/03/03 08:38:16;;;;;;;16.87;11.30;;;;;;;6.53;46.39;94277.88;5105273;28;20423;-74
2022/03/03 08:40:44;;;;;;;15.83;11.70;;;;;;;7.04;45.54;94281.34;5106117;28;20435;-74
2022/03/03 08:43:13;;;;;;;21.80;12.80;;;;;;;7.47;44.32;94277.22;5106393;28;20475;-74
2022/03/03 08:45:39;;;;;;;15.30;12.30;;;;;;;6.63;45.79;94291.41;5106077;28;20411;-74
2022/03/03 08:48:07;;;;;;;17.17;13.20;;;;;;;7.06;45.95;94283.78;5104698;28;20430;-74
2022/03/03 08:50:35;;;;;;;18.57;13.73;;;;;;;7.15;44.62;94272.28;5103288;28;20974;-74
2022/03/03 08:53:03;;;;;;;16.00;11.90;;;;;;;6.55;46.23;94286.31;5105356;28;20407;-74
2022/03/03 08:55:29;;;;;;;16.87;10.90;;;;;;;6.64;46.30;94274.84;5102094;28;20498;-74
2022/03/03 08:57:56;;;;;;;18.43;10.93;;;;;;;6.36;45.96;94280.63;5086283;28;20479;-74
2022/03/03 09:00:22;;;;;;;14.13;11.33;;;;;;;6.15;46.83;94286.50;5104765;28;20902;-74
2022/03/03 09:02:48;;;;;;;10.17;7.80;;;;;;;6.00;46.46;94263.09;5103957;28;20546;-73
2022/03/03 09:05:14;;;;;;;18.07;11.97;;;;;;;6.64;45.77;94282.63;5103955;28;20457;-73
2022/03/03 09:07:41;;;;;;;14.37;11.97;;;;;;;7.09;44.71;94274.78;5105387;28;20426;-74
2022/03/03 09:10:07;;;;;;;20.20;10.90;;;;;;;6.74;45.88;94270.16;5104808;28;20427;-74
2022/03/03 09:12:40;;;;;;;16.77;11.23;;;;;;;5.81;47.61;94276.53;5078306;28;20554;-75
2022/03/03 09:15:07;;;;;;;17.73;12.40;;;;;;;5.92;48.08;94260.53;5072206;28;20492;-74
2022/03/03 09:17:34;;;;;;;16.30;13.27;;;;;;;6.93;46.26;94273.19;5078281;28;20249;-75
2022/03/03 09:20:00;;;;;;;28.07;12.27;;;;;;;6.78;45.95;94279.22;5076170;28;20503;-75
2022/03/03 09:22:26;;;;;;;16.50;11.90;;;;;;;6.35;46.76;94281.59;5077175;28;20527;-75
2022/03/03 09:24:53;;;;;;;17.10;12.40;;;;;;;6.67;46.85;94287.47;5078161;28;20486;-75
2022/03/03 09:27:19;;;;;;;16.07;11.50;;;;;;;7.32;44.37;94282.47;5073793;28;20929;-75
2022/03/03 09:29:45;;;;;;;19.40;13.97;;;;;;;7.19;45.59;94276.13;5072425;28;20452;-75
2022/03/03 09:32:12;;;;;;;15.27;11.23;;;;;;;6.01;46.82;94275.09;5077761;28;20451;-75
2022/03/03 09:34:38;;;;;;;14.37;10.87;;;;;;;6.33;46.69;94275.78;5074468;28;20293;-75
2022/03/03 09:37:03;;;;;;;9.13;7.00;;;;;;;6.73;45.55;94268.53;5079026;28;20431;-75
2022/03/03 09:39:29;;;;;;;15.37;11.63;;;;;;;7.21;45.35;94276.75;5077741;28;20256;-75
2022/03/03 09:41:54;;;;;;;13.67;11.33;;;;;;;6.61;45.54;94282.97;5074751;28;20197;-74
2022/03/03 09:44:27;;;;;;;11.27;10.07;;;;;;;6.23;46.22;94273.44;5075050;28;20182;-75
2022/03/03 09:46:54;;;;;;;13.10;9.53;;;;;;;6.52;45.42;94277.03;5072153;28;20186;-75
2022/03/03 09:49:20;;;;;;;13.40;11.33;;;;;;;6.11;47.19;94274.84;5076541;28;20484;-74
2022/03/03 09:51:47;;;;;;;11.07;9.90;;;;;;;6.37;46.34;94274.44;5077536;28;20433;-75
2022/03/03 09:54:13;;;;;;;12.70;8.37;;;;;;;7.21;44.14;94266.34;5079638;28;20587;-75
2022/03/03 09:56:39;;;;;;;12.50;10.63;;;;;;;7.66;43.50;94260.19;5077910;28;20435;-75
2022/03/03 09:59:07;;;;;;;16.50;13.43;;;;;;;7.89;43.28;94265.19;5069193;28;20417;-75
2022/03/03 10:01:34;;;;;;;18.50;12.23;;;;;;;8.07;43.31;94260.34;5067087;28;20206;-75
2022/03/03 10:04:20;;;;;;;14.30;12.80;;;;;;;8.06;43.04;94260.53;5072939;28;20421;-75
2022/03/03 10:06:46;;;;;;;17.03;11.90;;;;;;;8.65;40.78;94262.81;5072822;28;20428;-75
2022/03/03 10:09:12;;;;;;;13.53;10.73;;;;;;;8.76;41.11;94251.84;5079864;28;20417;-75
2022/03/03 10:11:40;;;;;;;12.80;10.30;;;;;;;8.36;42.35;94258.56;5066369;28;20465;-75
2022/03/03 10:14:06;;;;;;;10.37;7.17;;;;;;;8.15;41.77;94254.19;5080473;28;20474;-75
2022/03/03 10:16:32;;;;;;;20.93;12.80;;;;;;;7.93;43.54;94269.03;5068514;28;20863;-75
2022/03/03 10:19:03;;;;;;;10.10;9.10;;;;;;;7.65;43.83;94261.19;5065517;28;20928;-74
2022/03/03 10:21:32;;;;;;;12.37;9.53;;;;;;;7.55;43.31;94257.09;5056423;28;20253;-75
2022/03/03 10:23:59;;;;;;;19.57;13.10;;;;;;;8.11;41.68;94255.56;5058097;28;20417;-75
2022/03/03 10:26:38;;;;;;;13.90;11.27;;;;;;;8.26;41.85;94258.09;5065561;28;20457;-75
2022/03/03 10:29:16;;;;;;;14.30;11.90;;;;;;;8.39;42.01;94253.78;5066945;28;20967;-74
2022/03/03 10:31:47;;;;;;;29.50;13.70;;;;;;;8.92;41.68;94252.50;5067070;28;20432;-75
2022/03/03 10:34:19;;;;;;;21.57;11.90;;;;;;;8.23;42.54;94251.44;5040040;28;20416;-74
2022/03/03 10:36:55;;;;;;;16.23;10.70;;;;;;;7.65;43.02;94248.97;5066599;28;20487;-75
2022/03/03 10:39:20;;;;;;;19.37;12.80;;;;;;;7.69;43.10;94254.63;5064684;28;20412;-75
2022/03/03 10:41:51;;;;;;;19.17;13.57;;;;;;;7.88;42.86;94255.78;5062405;28;20462;-74
2022/03/03 10:44:30;;;;;;;17.50;10.27;;;;;;;7.82;43.89;94242.50;5059120;28;20163;-73
2022/03/03 10:47:11;;;;;;;12.70;8.60;;;;;;;7.46;43.74;94247.78;5065882;28;20489;-74
2022/03/03 10:49:39;;;;;;;11.50;9.50;;;;;;;6.91;44.45;94243.97;5065148;28;20431;-74
2022/03/03 10:52:13;;;;;;;13.47;10.40;;;;;;;6.96;43.86;94242.44;5061083;28;20417;-75
2022/03/03 10:55:05;;;;;;;14.47;11.33;;;;;;;7.56;43.36;94229.25;5066486;28;20424;-74
2022/03/03 10:57:34;;;;;;;13.40;9.97;;;;;;;6.67;45.07;94226.84;5062298;28;20537;-75
2022/03/03 11:00:06;;;;;;;13.03;11.10;;;;;;;7.41;43.66;94244.91;5065337;28;20417;-75
2022/03/03 11:02:33;;;;;;;18.63;14.23;;;;;;;7.46;44.19;94247.00;5065831;28;20534;-75
2022/03/03 11:04:59;;;;;;;22.13;9.70;;;;;;;6.93;44.80;94245.41;5065657;28;20753;-75
2022/03/03 11:07:25;;;;;;;19.33;12.90;;;;;;;7.85;43.05;94254.34;5053199;28;20446;-75
2022/03/03 11:09:51;;;;;;;17.60;12.23;;;;;;;8.28;42.12;94243.06;5057520;28;20178;-75
2022/03/03 11:12:19;;;;;;;15.70;12.80;;;;;;;8.01;41.94;94241.06;5060274;28;20568;-75
2022/03/03 11:14:45;;;;;;;15.00;11.83;;;;;;;7.87;42.18;94234.13;5053039;28;20428;-76
2022/03/03 11:17:11;;;;;;;14.20;11.90;;;;;;;7.68;42.95;94232.97;5062385;28;20555;-76
2022/03/03 11:19:40;;;;;;;24.60;10.70;;;;;;;7.54;43.48;94245.06;5058068;28;20421;-75
2022/03/03 11:22:06;;;;;;;21.30;12.57;;;;;;;7.78;42.29;94241.28;5057245;28;20198;-75
2022/03/03 11:24:37;;;;;;;14.57;11.03;;;;;;;7.97;42.67;94234.63;5061186;28;20832;-75
2022/03/03 11:27:04;;;;;;;14.10;11.57;;;;;;;7.60;43.36;94238.31;5060939;28;21264;-75
2022/03/03 11:29:32;;;;;;;16.20;12.30;;;;;;;7.97;42.87;94239.84;5056685;28;20825;-75